createdAt,value
2023-03-02T00:00:16.894Z,17.27
2023-03-02T00:05:18.833Z,16.80
2023-03-02T00:10:21.180Z,17.13
2023-03-02T00:15:23.376Z,16.70
2023-03-02T00:20:25.181Z,17.02
2023-03-02T00:25:27.002Z,17.70
2023-03-02T00:30:29.162Z,17.40
2023-03-02T00:35:30.985Z,18.13
2023-03-02T00:40:33.580Z,16.52
2023-03-02T00:45:35.456Z,17.50
2023-03-02T00:50:40.986Z,18.30
2023-03-02T00:55:42.745Z,18.48
2023-03-02T01:00:44.905Z,19.63
2023-03-02T01:05:47.063Z,17.75
2023-03-02T01:10:49.088Z,17.58
2023-03-02T01:16:00.427Z,18.63
2023-03-02T01:21:08.014Z,18.85
2023-03-02T01:26:09.925Z,17.35
2023-03-02T01:31:12.011Z,18.10
2023-03-02T01:36:13.936Z,19.23
2023-03-02T01:41:16.114Z,18.02
2023-03-02T01:46:25.619Z,19.08
2023-03-02T01:51:30.640Z,17.58
2023-03-02T01:56:37.062Z,17.17
2023-03-02T02:01:43.120Z,19.00
2023-03-02T02:06:50.749Z,16.63
2023-03-02T02:11:53.124Z,16.33
2023-03-02T02:16:55.026Z,17.27
2023-03-02T02:21:57.075Z,16.80
2023-03-02T02:26:59.101Z,17.52
2023-03-02T02:32:02.687Z,18.17
2023-03-02T02:37:13.454Z,17.52
2023-03-02T02:42:34.551Z,17.07
2023-03-02T02:47:36.476Z,17.75
2023-03-02T02:52:40.972Z,17.60
2023-03-02T02:57:43.337Z,16.60
2023-03-02T03:02:50.682Z,17.25
2023-03-02T03:07:53.608Z,16.75
2023-03-02T03:12:56.461Z,16.50
2023-03-02T03:17:59.374Z,16.85
2023-03-02T03:23:01.455Z,17.17
2023-03-02T03:28:04.105Z,15.40
2023-03-02T03:33:06.005Z,16.95
2023-03-02T03:38:08.977Z,15.70
2023-03-02T03:43:13.827Z,16.42
2023-03-02T03:48:16.224Z,18.25
2023-03-02T03:53:18.041Z,17.58
2023-03-02T03:58:20.343Z,15.98
2023-03-02T04:03:22.707Z,18.10
2023-03-02T04:08:24.692Z,16.25
2023-03-02T04:13:26.698Z,17.52
2023-03-02T04:18:29.107Z,16.17
2023-03-02T04:23:31.358Z,16.40
2023-03-02T04:28:34.014Z,17.45
2023-03-02T04:33:35.956Z,17.58
2023-03-02T04:38:40.261Z,18.08
2023-03-02T04:43:42.252Z,17.60
2023-03-02T04:48:44.641Z,18.38
2023-03-02T04:53:47.946Z,19.83
2023-03-02T04:58:50.400Z,16.92
2023-03-02T05:03:52.855Z,19.25
2023-03-02T05:08:54.734Z,18.60
2023-03-02T05:14:00.023Z,17.88
2023-03-02T05:19:06.188Z,18.67
2023-03-02T05:24:08.517Z,17.50
2023-03-02T05:29:10.401Z,16.92
2023-03-02T05:34:15.190Z,16.92
2023-03-02T05:39:16.953Z,16.83
2023-03-02T05:44:18.916Z,16.45
2023-03-02T05:49:20.663Z,17.58
2023-03-02T05:54:22.505Z,15.10
2023-03-02T05:59:24.575Z,16.55
2023-03-02T06:04:26.456Z,17.55
2023-03-02T06:09:28.254Z,17.23
2023-03-02T06:14:30.115Z,15.50
2023-03-02T06:19:32.164Z,16.38
2023-03-02T06:24:34.077Z,16.63
2023-03-02T06:29:36.053Z,16.10
2023-03-02T06:34:38.091Z,17.77
2023-03-02T06:39:40.094Z,16.77
2023-03-02T06:44:41.995Z,17.95
2023-03-02T06:49:44.037Z,18.95
2023-03-02T06:54:45.796Z,17.05
2023-03-02T06:59:47.840Z,19.15
2023-03-02T07:04:50.788Z,20.80
2023-03-02T07:09:52.593Z,17.63
2023-03-02T07:14:54.350Z,19.38
2023-03-02T07:19:56.172Z,19.95
2023-03-02T07:24:58.303Z,23.20
2023-03-02T07:30:00.112Z,24.67
2023-03-02T07:35:02.237Z,23.83
2023-03-02T07:40:05.047Z,25.27
2023-03-02T07:45:07.752Z,26.63
2023-03-02T07:50:10.238Z,28.83
2023-03-02T07:55:12.126Z,26.13
2023-03-02T08:00:14.901Z,23.25
2023-03-02T08:05:16.989Z,17.73
2023-03-02T08:10:18.993Z,16.45
2023-03-02T08:15:20.997Z,15.60
2023-03-02T08:20:22.985Z,15.80
2023-03-02T08:25:24.862Z,15.48
2023-03-02T08:30:26.722Z,16.13
2023-03-02T08:35:28.601Z,15.75
2023-03-02T08:40:31.202Z,16.80
2023-03-02T08:45:34.904Z,15.82
2023-03-02T08:50:36.739Z,15.18
2023-03-02T08:55:38.517Z,16.55
2023-03-02T09:00:40.400Z,14.88
2023-03-02T09:05:42.304Z,15.23
2023-03-02T09:10:44.080Z,15.45
2023-03-02T09:15:46.145Z,14.88
2023-03-02T09:20:54.072Z,14.07
2023-03-02T09:25:57.311Z,14.40
2023-03-02T09:31:00.894Z,14.35
2023-03-02T09:36:11.787Z,13.68
2023-03-02T09:41:19.913Z,15.05
2023-03-02T09:47:06.788Z,14.60
2023-03-02T09:52:36.621Z,13.43
2023-03-02T09:57:39.857Z,13.65
2023-03-02T10:03:00.494Z,13.65
2023-03-02T10:08:04.469Z,13.25
2023-03-02T10:13:14.392Z,13.40
2023-03-02T10:18:25.136Z,13.25
2023-03-02T10:23:36.149Z,12.75
2023-03-02T10:28:50.401Z,13.38
2023-03-02T10:33:52.478Z,12.48
2023-03-02T10:38:55.904Z,12.70
2023-03-02T10:44:06.316Z,12.15
2023-03-02T10:49:42.297Z,12.30
2023-03-02T10:54:44.639Z,11.15
2023-03-02T10:59:49.281Z,11.55
2023-03-02T11:05:15.184Z,11.40
2023-03-02T11:10:32.010Z,12.15
2023-03-02T11:15:43.982Z,10.13
2023-03-02T11:20:50.712Z,10.70
2023-03-02T11:25:57.302Z,10.35
2023-03-02T11:31:00.675Z,10.32
2023-03-02T11:36:19.128Z,10.45
2023-03-02T11:41:25.024Z,10.75
2023-03-02T11:46:33.135Z,10.13
2023-03-02T11:51:50.036Z,9.05
2023-03-02T11:56:55.695Z,9.60
2023-03-02T12:01:59.772Z,10.02
2023-03-02T12:07:15.585Z,9.60
2023-03-02T12:12:44.528Z,9.63
2023-03-02T12:17:46.310Z,9.88
2023-03-02T12:22:48.320Z,9.43
2023-03-02T12:27:52.677Z,9.70
2023-03-02T12:33:05.195Z,10.02
2023-03-02T12:38:20.104Z,9.55
2023-03-02T12:43:30.785Z,9.65
2023-03-02T12:48:49.269Z,9.38
2023-03-02T12:54:13.660Z,10.65
2023-03-02T12:59:26.965Z,9.90
2023-03-02T13:04:29.092Z,9.13
2023-03-02T13:09:31.161Z,9.63
2023-03-02T13:14:33.440Z,10.07
2023-03-02T13:19:35.597Z,8.90
2023-03-02T13:25:00.525Z,8.48
2023-03-02T13:30:23.050Z,8.63
2023-03-02T13:35:28.413Z,8.70
2023-03-02T13:40:40.205Z,9.10
2023-03-02T13:46:14.155Z,7.88
2023-03-02T13:51:18.629Z,8.23
2023-03-02T13:56:22.784Z,8.10
2023-03-02T14:01:24.886Z,8.00
2023-03-02T14:06:26.894Z,8.73
2023-03-02T14:11:35.128Z,8.20
2023-03-02T14:16:37.277Z,7.43
2023-03-02T14:21:39.408Z,8.07
2023-03-02T14:26:47.495Z,8.10
2023-03-02T14:31:49.545Z,8.15
2023-03-02T14:36:54.439Z,8.10
2023-03-02T14:41:56.614Z,8.25
2023-03-02T14:46:59.995Z,7.85
2023-03-02T14:52:15.308Z,11.45
2023-03-02T14:57:20.340Z,11.73
2023-03-02T15:02:26.056Z,9.35
2023-03-02T15:07:28.836Z,9.95
2023-03-02T15:12:30.737Z,11.00
2023-03-02T15:17:32.516Z,9.85
2023-03-02T15:22:34.941Z,9.80
2023-03-02T15:27:37.360Z,10.27
2023-03-02T15:32:39.251Z,10.95
2023-03-02T15:37:41.354Z,10.73
2023-03-02T15:42:43.901Z,10.05
2023-03-02T15:47:45.695Z,11.27
2023-03-02T15:52:47.855Z,13.63
2023-03-02T15:57:49.827Z,13.00
2023-03-02T16:02:51.718Z,12.43
2023-03-02T16:07:53.538Z,10.07
2023-03-02T16:12:55.657Z,10.57
2023-03-02T16:17:59.053Z,12.20
2023-03-02T16:23:02.453Z,11.95
2023-03-02T16:28:04.808Z,10.65
2023-03-02T16:33:09.971Z,13.32
2023-03-02T16:38:12.039Z,13.40
2023-03-02T16:43:13.880Z,10.07
2023-03-02T16:48:15.726Z,12.18
2023-03-02T16:53:19.573Z,15.80
2023-03-02T16:58:21.726Z,11.77
2023-03-02T17:03:23.563Z,10.43
2023-03-02T17:08:25.613Z,10.38
2023-03-02T17:13:27.787Z,12.02
2023-03-02T17:18:30.684Z,13.13
2023-03-02T17:23:33.823Z,13.27
2023-03-02T17:28:35.820Z,19.48
2023-03-02T17:33:38.321Z,16.65
2023-03-02T17:38:40.502Z,19.25
2023-03-02T17:43:42.913Z,19.58
2023-03-02T17:48:44.922Z,20.02
2023-03-02T17:53:48.788Z,20.80
2023-03-02T17:58:55.186Z,20.63
2023-03-02T18:03:57.831Z,15.02
2023-03-02T18:08:59.864Z,16.58
2023-03-02T18:14:02.086Z,11.88
2023-03-02T18:19:04.033Z,12.68
2023-03-02T18:24:07.012Z,11.73
2023-03-02T18:29:08.875Z,9.55
2023-03-02T18:34:10.788Z,10.60
2023-03-02T18:39:12.860Z,10.73
2023-03-02T18:44:14.641Z,11.13
2023-03-02T18:49:16.503Z,14.18
2023-03-02T18:54:19.307Z,14.48
2023-03-02T18:59:21.125Z,12.85
2023-03-02T19:04:26.438Z,10.93
2023-03-02T19:09:28.679Z,11.23
2023-03-02T19:14:30.955Z,9.75
2023-03-02T19:19:33.247Z,10.48
2023-03-02T19:24:35.851Z,10.20
2023-03-02T19:29:38.818Z,10.75
2023-03-02T19:34:43.156Z,10.80
2023-03-02T19:39:45.197Z,11.55
2023-03-02T19:44:47.197Z,12.35
2023-03-02T19:49:49.064Z,14.50
2023-03-02T19:54:51.026Z,12.50
2023-03-02T19:59:52.920Z,11.48
2023-03-02T20:04:54.613Z,16.73
2023-03-02T20:09:57.163Z,15.57
2023-03-02T20:14:59.273Z,14.23
2023-03-02T20:20:02.213Z,12.00
2023-03-02T20:25:05.183Z,10.55
2023-03-02T20:30:09.043Z,12.30
2023-03-02T20:35:11.988Z,9.88
2023-03-02T20:40:14.837Z,12.00
2023-03-02T20:45:16.781Z,13.02
2023-03-02T20:50:22.467Z,12.50
2023-03-02T20:55:26.838Z,13.25
2023-03-02T21:00:30.711Z,12.07
2023-03-02T21:05:34.424Z,12.50
2023-03-02T21:10:38.885Z,10.73
2023-03-02T21:15:41.225Z,12.18
2023-03-02T21:20:43.216Z,11.13
2023-03-02T21:25:45.010Z,10.95
2023-03-02T21:30:46.983Z,10.55
2023-03-02T21:35:48.844Z,13.40
2023-03-02T21:40:50.749Z,11.45
2023-03-02T21:45:52.572Z,10.20
2023-03-02T21:50:54.794Z,15.88
2023-03-02T21:55:56.971Z,11.90
2023-03-02T22:00:58.672Z,12.20
2023-03-02T22:06:00.566Z,12.50
2023-03-02T22:11:02.653Z,11.50
2023-03-02T22:16:18.766Z,12.55
2023-03-02T22:21:48.662Z,13.52
2023-03-02T22:27:16.495Z,12.93
2023-03-02T22:32:21.854Z,12.60
2023-03-02T22:37:34.125Z,14.32
2023-03-02T22:42:36.249Z,14.80
2023-03-02T22:47:42.879Z,15.18
2023-03-02T22:52:45.308Z,14.20
2023-03-02T22:57:47.451Z,13.95
2023-03-02T23:02:50.007Z,13.93
2023-03-02T23:08:11.796Z,13.90
2023-03-02T23:13:16.839Z,14.40
2023-03-02T23:18:28.541Z,14.75
2023-03-02T23:23:31.157Z,14.88
2023-03-02T23:28:33.153Z,14.63
2023-03-02T23:33:34.960Z,14.07
2023-03-02T23:38:37.389Z,15.15
2023-03-02T23:43:39.382Z,16.10
2023-03-02T23:48:42.430Z,16.08
2023-03-02T23:53:44.854Z,16.33
2023-03-02T23:58:46.842Z,15.65
